sensor_id;sensor_type;location;lat;lon;timestamp;P1;durP1;ratioP1;P2;durP2;ratioP2
81457;SDS011;70882;52.500;5.500;2023-09-19T00:00:34;3.55;;;1.00;;
81457;SDS011;70882;52.500;5.500;2023-09-19T00:02:59;1.77;;;1.17;;
81457;SDS011;70882;52.500;5.500;2023-09-19T00:05:25;4.28;;;1.13;;
81457;SDS011;70882;52.500;5.500;2023-09-19T00:07:53;3.67;;;1.40;;
81457;SDS011;70882;52.500;5.500;2023-09-19T00:10:20;4.28;;;1.27;;
81457;SDS011;70882;52.500;5.500;2023-09-19T00:12:47;3.92;;;1.20;;
81457;SDS011;70882;52.500;5.500;2023-09-19T00:15:13;6.18;;;1.20;;
81457;SDS011;70882;52.500;5.500;2023-09-19T00:17:38;5.05;;;1.10;;
81457;SDS011;70882;52.500;5.500;2023-09-19T00:20:05;1.65;;;0.93;;
81457;SDS011;70882;52.500;5.500;2023-09-19T00:22:38;5.78;;;1.38;;
81457;SDS011;70882;52.500;5.500;2023-09-19T00:25:04;2.08;;;0.80;;
81457;SDS011;70882;52.500;5.500;2023-09-19T00:27:31;2.55;;;1.15;;
81457;SDS011;70882;52.500;5.500;2023-09-19T00:29:58;3.22;;;1.30;;
81457;SDS011;70882;52.500;5.500;2023-09-19T00:32:24;4.47;;;1.40;;
81457;SDS011;70882;52.500;5.500;2023-09-19T00:34:49;2.65;;;1.25;;
81457;SDS011;70882;52.500;5.500;2023-09-19T00:37:15;2.20;;;1.08;;
81457;SDS011;70882;52.500;5.500;2023-09-19T00:39:42;3.15;;;1.02;;
81457;SDS011;70882;52.500;5.500;2023-09-19T00:42:08;3.53;;;1.55;;
81457;SDS011;70882;52.500;5.500;2023-09-19T00:44:33;3.53;;;1.02;;
81457;SDS011;70882;52.500;5.500;2023-09-19T00:46:59;3.40;;;1.10;;
81457;SDS011;70882;52.500;5.500;2023-09-19T00:49:25;2.85;;;1.08;;
81457;SDS011;70882;52.500;5.500;2023-09-19T00:51:50;2.72;;;0.85;;
81457;SDS011;70882;52.500;5.500;2023-09-19T00:54:16;3.97;;;1.30;;
81457;SDS011;70882;52.500;5.500;2023-09-19T00:56:44;4.22;;;1.17;;
81457;SDS011;70882;52.500;5.500;2023-09-19T00:59:10;2.88;;;1.00;;
81457;SDS011;70882;52.500;5.500;2023-09-19T01:01:36;2.97;;;1.30;;
81457;SDS011;70882;52.500;5.500;2023-09-19T01:04:05;3.85;;;1.20;;
81457;SDS011;70882;52.500;5.500;2023-09-19T01:06:30;2.42;;;1.10;;
81457;SDS011;70882;52.500;5.500;2023-09-19T01:08:56;3.78;;;1.08;;
81457;SDS011;70882;52.500;5.500;2023-09-19T01:11:27;2.45;;;1.30;;
81457;SDS011;70882;52.500;5.500;2023-09-19T01:13:58;3.00;;;1.00;;
81457;SDS011;70882;52.500;5.500;2023-09-19T01:19:23;1.95;;;1.00;;
81457;SDS011;70882;52.500;5.500;2023-09-19T01:22:08;3.28;;;0.90;;
81457;SDS011;70882;52.500;5.500;2023-09-19T01:27:39;3.65;;;0.98;;
81457;SDS011;70882;52.500;5.500;2023-09-19T01:30:16;2.53;;;1.17;;
81457;SDS011;70882;52.500;5.500;2023-09-19T01:32:43;2.47;;;1.00;;
81457;SDS011;70882;52.500;5.500;2023-09-19T01:35:09;2.33;;;1.00;;
81457;SDS011;70882;52.500;5.500;2023-09-19T01:37:38;2.17;;;1.10;;
81457;SDS011;70882;52.500;5.500;2023-09-19T01:40:07;5.53;;;1.52;;
81457;SDS011;70882;52.500;5.500;2023-09-19T01:48:35;4.38;;;1.30;;
81457;SDS011;70882;52.500;5.500;2023-09-19T01:54:11;4.00;;;1.13;;
81457;SDS011;70882;52.500;5.500;2023-09-19T01:59:48;4.07;;;1.15;;
81457;SDS011;70882;52.500;5.500;2023-09-19T02:02:17;3.08;;;1.20;;
81457;SDS011;70882;52.500;5.500;2023-09-19T02:04:43;2.22;;;1.00;;
81457;SDS011;70882;52.500;5.500;2023-09-19T02:07:08;4.65;;;1.30;;
81457;SDS011;70882;52.500;5.500;2023-09-19T02:09:34;3.83;;;1.25;;
81457;SDS011;70882;52.500;5.500;2023-09-19T02:12:00;4.03;;;1.00;;
81457;SDS011;70882;52.500;5.500;2023-09-19T02:14:29;2.67;;;1.20;;
81457;SDS011;70882;52.500;5.500;2023-09-19T02:16:55;3.20;;;1.00;;
81457;SDS011;70882;52.500;5.500;2023-09-19T02:19:21;2.88;;;0.98;;
81457;SDS011;70882;52.500;5.500;2023-09-19T02:21:47;3.08;;;0.90;;
81457;SDS011;70882;52.500;5.500;2023-09-19T02:24:14;3.13;;;0.98;;
81457;SDS011;70882;52.500;5.500;2023-09-19T02:26:40;2.78;;;0.90;;
81457;SDS011;70882;52.500;5.500;2023-09-19T02:29:05;1.75;;;0.90;;
81457;SDS011;70882;52.500;5.500;2023-09-19T02:31:31;2.63;;;0.90;;
81457;SDS011;70882;52.500;5.500;2023-09-19T02:33:56;4.18;;;1.10;;
81457;SDS011;70882;52.500;5.500;2023-09-19T02:36:22;2.20;;;0.90;;
81457;SDS011;70882;52.500;5.500;2023-09-19T02:38:48;2.35;;;0.88;;
81457;SDS011;70882;52.500;5.500;2023-09-19T02:41:14;2.42;;;0.90;;
81457;SDS011;70882;52.500;5.500;2023-09-19T02:43:39;1.63;;;0.80;;
81457;SDS011;70882;52.500;5.500;2023-09-19T02:46:04;2.28;;;0.95;;
81457;SDS011;70882;52.500;5.500;2023-09-19T02:48:30;4.05;;;1.00;;
81457;SDS011;70882;52.500;5.500;2023-09-19T02:50:57;2.47;;;1.20;;
81457;SDS011;70882;52.500;5.500;2023-09-19T02:53:23;4.38;;;1.00;;
81457;SDS011;70882;52.500;5.500;2023-09-19T02:55:49;3.97;;;1.00;;
81457;SDS011;70882;52.500;5.500;2023-09-19T02:58:14;2.42;;;0.95;;
81457;SDS011;70882;52.500;5.500;2023-09-19T03:00:40;1.63;;;1.25;;
81457;SDS011;70882;52.500;5.500;2023-09-19T03:03:07;2.40;;;1.02;;
81457;SDS011;70882;52.500;5.500;2023-09-19T03:05:33;1.25;;;0.77;;
81457;SDS011;70882;52.500;5.500;2023-09-19T03:07:59;4.45;;;0.90;;
81457;SDS011;70882;52.500;5.500;2023-09-19T03:10:26;3.22;;;1.05;;
81457;SDS011;70882;52.500;5.500;2023-09-19T03:12:53;1.85;;;1.00;;
81457;SDS011;70882;52.500;5.500;2023-09-19T03:15:18;2.08;;;1.00;;
81457;SDS011;70882;52.500;5.500;2023-09-19T03:17:44;2.53;;;0.80;;
81457;SDS011;70882;52.500;5.500;2023-09-19T03:20:12;1.75;;;0.90;;
81457;SDS011;70882;52.500;5.500;2023-09-19T03:22:39;2.13;;;0.70;;
81457;SDS011;70882;52.500;5.500;2023-09-19T03:25:05;4.65;;;1.42;;
81457;SDS011;70882;52.500;5.500;2023-09-19T03:27:33;1.77;;;0.70;;
81457;SDS011;70882;52.500;5.500;2023-09-19T03:29:59;2.70;;;1.00;;
81457;SDS011;70882;52.500;5.500;2023-09-19T03:32:25;1.58;;;0.80;;
81457;SDS011;70882;52.500;5.500;2023-09-19T03:34:50;1.75;;;1.00;;
81457;SDS011;70882;52.500;5.500;2023-09-19T03:37:15;1.45;;;0.95;;
81457;SDS011;70882;52.500;5.500;2023-09-19T03:39:41;3.72;;;1.10;;
81457;SDS011;70882;52.500;5.500;2023-09-19T03:42:06;2.53;;;1.00;;
81457;SDS011;70882;52.500;5.500;2023-09-19T03:44:32;2.28;;;1.05;;
81457;SDS011;70882;52.500;5.500;2023-09-19T03:46:58;1.65;;;0.88;;
81457;SDS011;70882;52.500;5.500;2023-09-19T03:49:23;1.27;;;0.90;;
81457;SDS011;70882;52.500;5.500;2023-09-19T03:51:48;2.90;;;0.73;;
81457;SDS011;70882;52.500;5.500;2023-09-19T03:54:14;2.42;;;1.10;;
81457;SDS011;70882;52.500;5.500;2023-09-19T03:56:39;2.15;;;0.75;;
81457;SDS011;70882;52.500;5.500;2023-09-19T03:59:05;2.03;;;1.00;;
81457;SDS011;70882;52.500;5.500;2023-09-19T04:01:30;3.25;;;1.10;;
81457;SDS011;70882;52.500;5.500;2023-09-19T04:03:57;2.78;;;0.90;;
81457;SDS011;70882;52.500;5.500;2023-09-19T04:06:23;3.88;;;1.00;;
81457;SDS011;70882;52.500;5.500;2023-09-19T04:08:48;2.17;;;0.90;;
81457;SDS011;70882;52.500;5.500;2023-09-19T04:11:14;4.15;;;1.10;;
81457;SDS011;70882;52.500;5.500;2023-09-19T04:13:39;3.20;;;0.88;;
81457;SDS011;70882;52.500;5.500;2023-09-19T04:16:05;3.05;;;0.80;;
81457;SDS011;70882;52.500;5.500;2023-09-19T04:18:32;2.47;;;0.88;;
81457;SDS011;70882;52.500;5.500;2023-09-19T04:20:58;1.35;;;0.90;;
81457;SDS011;70882;52.500;5.500;2023-09-19T04:23:27;3.20;;;1.05;;
81457;SDS011;70882;52.500;5.500;2023-09-19T04:25:53;1.50;;;0.80;;
81457;SDS011;70882;52.500;5.500;2023-09-19T04:28:18;4.05;;;1.20;;
81457;SDS011;70882;52.500;5.500;2023-09-19T04:30:44;2.25;;;0.95;;
81457;SDS011;70882;52.500;5.500;2023-09-19T04:33:09;2.25;;;0.90;;
81457;SDS011;70882;52.500;5.500;2023-09-19T04:35:34;2.78;;;1.10;;
81457;SDS011;70882;52.500;5.500;2023-09-19T04:38:00;3.60;;;0.82;;
81457;SDS011;70882;52.500;5.500;2023-09-19T04:40:26;2.53;;;1.00;;
81457;SDS011;70882;52.500;5.500;2023-09-19T04:42:55;5.18;;;1.17;;
81457;SDS011;70882;52.500;5.500;2023-09-19T04:45:23;3.13;;;0.90;;
81457;SDS011;70882;52.500;5.500;2023-09-19T04:47:49;3.35;;;1.65;;
81457;SDS011;70882;52.500;5.500;2023-09-19T04:50:14;3.28;;;1.15;;
81457;SDS011;70882;52.500;5.500;2023-09-19T04:52:42;4.05;;;1.23;;
81457;SDS011;70882;52.500;5.500;2023-09-19T04:55:12;4.32;;;1.05;;
81457;SDS011;70882;52.500;5.500;2023-09-19T04:57:41;2.88;;;0.98;;
81457;SDS011;70882;52.500;5.500;2023-09-19T05:00:11;2.28;;;1.20;;
81457;SDS011;70882;52.500;5.500;2023-09-19T05:02:39;3.70;;;1.00;;
81457;SDS011;70882;52.500;5.500;2023-09-19T05:05:06;3.72;;;1.15;;
81457;SDS011;70882;52.500;5.500;2023-09-19T05:07:33;3.42;;;1.25;;
81457;SDS011;70882;52.500;5.500;2023-09-19T05:09:59;4.47;;;1.00;;
81457;SDS011;70882;52.500;5.500;2023-09-19T05:12:25;2.03;;;1.00;;
81457;SDS011;70882;52.500;5.500;2023-09-19T05:14:51;3.30;;;1.10;;
81457;SDS011;70882;52.500;5.500;2023-09-19T05:17:16;3.72;;;1.10;;
81457;SDS011;70882;52.500;5.500;2023-09-19T05:19:42;2.83;;;0.90;;
81457;SDS011;70882;52.500;5.500;2023-09-19T05:22:08;2.90;;;1.08;;
81457;SDS011;70882;52.500;5.500;2023-09-19T05:24:33;2.70;;;0.98;;
81457;SDS011;70882;52.500;5.500;2023-09-19T05:26:58;3.15;;;1.00;;
81457;SDS011;70882;52.500;5.500;2023-09-19T05:29:24;5.07;;;1.13;;
81457;SDS011;70882;52.500;5.500;2023-09-19T05:31:50;4.53;;;1.30;;
81457;SDS011;70882;52.500;5.500;2023-09-19T05:34:16;3.38;;;1.33;;
81457;SDS011;70882;52.500;5.500;2023-09-19T05:36:41;3.35;;;1.17;;
81457;SDS011;70882;52.500;5.500;2023-09-19T05:39:07;18.00;;;2.75;;
81457;SDS011;70882;52.500;5.500;2023-09-19T05:41:34;7.72;;;2.30;;
81457;SDS011;70882;52.500;5.500;2023-09-19T05:44:01;8.50;;;2.10;;
81457;SDS011;70882;52.500;5.500;2023-09-19T05:46:32;15.32;;;2.75;;
81457;SDS011;70882;52.500;5.500;2023-09-19T05:48:57;15.43;;;3.17;;
81457;SDS011;70882;52.500;5.500;2023-09-19T05:51:23;21.05;;;3.90;;
81457;SDS011;70882;52.500;5.500;2023-09-19T05:53:48;19.10;;;3.67;;
81457;SDS011;70882;52.500;5.500;2023-09-19T05:56:15;18.98;;;4.43;;
81457;SDS011;70882;52.500;5.500;2023-09-19T05:58:40;25.52;;;6.35;;
81457;SDS011;70882;52.500;5.500;2023-09-19T06:01:09;29.23;;;5.45;;
81457;SDS011;70882;52.500;5.500;2023-09-19T06:03:34;23.65;;;5.65;;
81457;SDS011;70882;52.500;5.500;2023-09-19T06:06:01;24.95;;;5.25;;
81457;SDS011;70882;52.500;5.500;2023-09-19T06:08:26;33.50;;;6.03;;
81457;SDS011;70882;52.500;5.500;2023-09-19T06:10:53;23.00;;;5.60;;
81457;SDS011;70882;52.500;5.500;2023-09-19T06:13:19;25.58;;;5.80;;
81457;SDS011;70882;52.500;5.500;2023-09-19T06:15:45;26.20;;;5.88;;
81457;SDS011;70882;52.500;5.500;2023-09-19T06:18:11;32.00;;;6.45;;
81457;SDS011;70882;52.500;5.500;2023-09-19T06:20:42;24.45;;;5.20;;
81457;SDS011;70882;52.500;5.500;2023-09-19T06:23:09;19.77;;;5.88;;
81457;SDS011;70882;52.500;5.500;2023-09-19T06:25:36;24.35;;;5.63;;
81457;SDS011;70882;52.500;5.500;2023-09-19T06:28:01;22.75;;;5.30;;
81457;SDS011;70882;52.500;5.500;2023-09-19T06:30:30;39.28;;;6.43;;
81457;SDS011;70882;52.500;5.500;2023-09-19T06:32:59;19.10;;;5.60;;
81457;SDS011;70882;52.500;5.500;2023-09-19T06:35:25;21.05;;;4.90;;
81457;SDS011;70882;52.500;5.500;2023-09-19T06:37:51;25.02;;;4.93;;
81457;SDS011;70882;52.500;5.500;2023-09-19T06:40:17;19.73;;;4.97;;
81457;SDS011;70882;52.500;5.500;2023-09-19T06:42:44;22.92;;;4.68;;
81457;SDS011;70882;52.500;5.500;2023-09-19T06:45:15;20.98;;;4.38;;
81457;SDS011;70882;52.500;5.500;2023-09-19T06:47:47;17.60;;;4.82;;
81457;SDS011;70882;52.500;5.500;2023-09-19T06:50:17;16.23;;;4.45;;
81457;SDS011;70882;52.500;5.500;2023-09-19T06:52:45;16.42;;;4.43;;
81457;SDS011;70882;52.500;5.500;2023-09-19T06:55:14;16.08;;;4.43;;
81457;SDS011;70882;52.500;5.500;2023-09-19T06:57:41;19.00;;;4.25;;
81457;SDS011;70882;52.500;5.500;2023-09-19T07:00:08;19.00;;;3.65;;
81457;SDS011;70882;52.500;5.500;2023-09-19T07:02:41;20.75;;;4.65;;
81457;SDS011;70882;52.500;5.500;2023-09-19T07:05:06;15.70;;;3.83;;
81457;SDS011;70882;52.500;5.500;2023-09-19T07:07:32;13.35;;;3.72;;
81457;SDS011;70882;52.500;5.500;2023-09-19T07:10:00;17.25;;;3.78;;
81457;SDS011;70882;52.500;5.500;2023-09-19T07:12:26;18.38;;;3.80;;
81457;SDS011;70882;52.500;5.500;2023-09-19T07:14:51;15.18;;;3.60;;
81457;SDS011;70882;52.500;5.500;2023-09-19T07:17:16;16.33;;;3.30;;
81457;SDS011;70882;52.500;5.500;2023-09-19T07:19:44;14.85;;;3.55;;
81457;SDS011;70882;52.500;5.500;2023-09-19T07:22:09;12.52;;;3.20;;
81457;SDS011;70882;52.500;5.500;2023-09-19T07:24:35;11.07;;;2.67;;
81457;SDS011;70882;52.500;5.500;2023-09-19T07:27:01;10.15;;;2.63;;
81457;SDS011;70882;52.500;5.500;2023-09-19T07:29:27;10.57;;;2.95;;
81457;SDS011;70882;52.500;5.500;2023-09-19T07:31:53;11.55;;;3.28;;
81457;SDS011;70882;52.500;5.500;2023-09-19T07:34:18;16.50;;;4.82;;
81457;SDS011;70882;52.500;5.500;2023-09-19T07:36:45;11.25;;;3.10;;
81457;SDS011;70882;52.500;5.500;2023-09-19T07:39:12;12.40;;;3.03;;
81457;SDS011;70882;52.500;5.500;2023-09-19T07:41:37;8.68;;;2.17;;
81457;SDS011;70882;52.500;5.500;2023-09-19T07:44:03;7.78;;;2.60;;
81457;SDS011;70882;52.500;5.500;2023-09-19T07:46:28;10.18;;;2.30;;
81457;SDS011;70882;52.500;5.500;2023-09-19T07:48:56;8.43;;;2.22;;
81457;SDS011;70882;52.500;5.500;2023-09-19T07:51:22;8.07;;;2.40;;
81457;SDS011;70882;52.500;5.500;2023-09-19T07:53:48;10.57;;;2.92;;
81457;SDS011;70882;52.500;5.500;2023-09-19T07:56:13;7.65;;;2.22;;
81457;SDS011;70882;52.500;5.500;2023-09-19T07:58:39;9.93;;;2.28;;
81457;SDS011;70882;52.500;5.500;2023-09-19T08:01:09;6.05;;;1.90;;
81457;SDS011;70882;52.500;5.500;2023-09-19T08:03:36;7.45;;;2.40;;
81457;SDS011;70882;52.500;5.500;2023-09-19T08:06:05;8.95;;;1.85;;
81457;SDS011;70882;52.500;5.500;2023-09-19T08:08:32;8.77;;;2.40;;
81457;SDS011;70882;52.500;5.500;2023-09-19T08:10:57;8.48;;;2.20;;
81457;SDS011;70882;52.500;5.500;2023-09-19T08:13:23;8.65;;;2.00;;
81457;SDS011;70882;52.500;5.500;2023-09-19T08:15:49;6.97;;;2.30;;
81457;SDS011;70882;52.500;5.500;2023-09-19T08:18:15;7.43;;;1.73;;
81457;SDS011;70882;52.500;5.500;2023-09-19T08:20:41;6.30;;;1.63;;
81457;SDS011;70882;52.500;5.500;2023-09-19T08:23:11;7.78;;;2.00;;
81457;SDS011;70882;52.500;5.500;2023-09-19T08:25:37;7.40;;;2.17;;
81457;SDS011;70882;52.500;5.500;2023-09-19T08:28:04;5.30;;;1.60;;
81457;SDS011;70882;52.500;5.500;2023-09-19T08:30:33;5.47;;;1.50;;
81457;SDS011;70882;52.500;5.500;2023-09-19T08:32:59;7.55;;;1.63;;
81457;SDS011;70882;52.500;5.500;2023-09-19T08:35:25;5.32;;;1.83;;
81457;SDS011;70882;52.500;5.500;2023-09-19T08:37:52;4.13;;;1.63;;
81457;SDS011;70882;52.500;5.500;2023-09-19T08:40:18;5.85;;;1.77;;
81457;SDS011;70882;52.500;5.500;2023-09-19T08:42:53;8.43;;;1.80;;
81457;SDS011;70882;52.500;5.500;2023-09-19T08:45:23;4.13;;;1.52;;
81457;SDS011;70882;52.500;5.500;2023-09-19T08:50:56;4.95;;;1.67;;
81457;SDS011;70882;52.500;5.500;2023-09-19T08:53:40;3.80;;;1.70;;
81457;SDS011;70882;52.500;5.500;2023-09-19T08:56:08;6.25;;;1.80;;
81457;SDS011;70882;52.500;5.500;2023-09-19T08:58:38;5.50;;;1.80;;
81457;SDS011;70882;52.500;5.500;2023-09-19T09:01:07;7.97;;;1.58;;
81457;SDS011;70882;52.500;5.500;2023-09-19T09:03:35;7.45;;;1.48;;
81457;SDS011;70882;52.500;5.500;2023-09-19T09:06:01;5.43;;;1.88;;
81457;SDS011;70882;52.500;5.500;2023-09-19T09:08:27;3.78;;;1.50;;
81457;SDS011;70882;52.500;5.500;2023-09-19T09:10:53;7.90;;;1.80;;
81457;SDS011;70882;52.500;5.500;2023-09-19T09:13:19;5.68;;;1.80;;
81457;SDS011;70882;52.500;5.500;2023-09-19T09:15:46;5.45;;;1.50;;
81457;SDS011;70882;52.500;5.500;2023-09-19T09:18:12;8.15;;;1.70;;
81457;SDS011;70882;52.500;5.500;2023-09-19T09:20:38;6.13;;;2.03;;
81457;SDS011;70882;52.500;5.500;2023-09-19T09:23:03;5.07;;;1.20;;
81457;SDS011;70882;52.500;5.500;2023-09-19T09:28:19;6.28;;;1.55;;
81457;SDS011;70882;52.500;5.500;2023-09-19T09:30:45;6.57;;;1.50;;
81457;SDS011;70882;52.500;5.500;2023-09-19T09:33:11;5.35;;;1.55;;
81457;SDS011;70882;52.500;5.500;2023-09-19T09:35:47;7.40;;;1.60;;
81457;SDS011;70882;52.500;5.500;2023-09-19T09:38:21;4.90;;;1.58;;
81457;SDS011;70882;52.500;5.500;2023-09-19T09:40:53;5.10;;;1.50;;
81457;SDS011;70882;52.500;5.500;2023-09-19T09:43:25;8.60;;;1.80;;
81457;SDS011;70882;52.500;5.500;2023-09-19T09:46:07;4.32;;;1.40;;
81457;SDS011;70882;52.500;5.500;2023-09-19T09:48:44;6.80;;;2.00;;
81457;SDS011;70882;52.500;5.500;2023-09-19T09:51:17;4.43;;;1.48;;
81457;SDS011;70882;52.500;5.500;2023-09-19T09:54:09;6.53;;;1.77;;
81457;SDS011;70882;52.500;5.500;2023-09-19T09:56:51;6.78;;;2.13;;
81457;SDS011;70882;52.500;5.500;2023-09-19T10:02:15;5.85;;;2.00;;
81457;SDS011;70882;52.500;5.500;2023-09-19T10:04:54;6.03;;;1.50;;
81457;SDS011;70882;52.500;5.500;2023-09-19T10:07:35;4.55;;;1.50;;
81457;SDS011;70882;52.500;5.500;2023-09-19T10:10:03;4.97;;;1.55;;
81457;SDS011;70882;52.500;5.500;2023-09-19T10:12:37;6.65;;;2.00;;
81457;SDS011;70882;52.500;5.500;2023-09-19T10:15:04;6.05;;;1.60;;
81457;SDS011;70882;52.500;5.500;2023-09-19T10:17:33;4.78;;;1.50;;
81457;SDS011;70882;52.500;5.500;2023-09-19T10:19:59;5.47;;;1.60;;
81457;SDS011;70882;52.500;5.500;2023-09-19T10:22:34;5.72;;;2.05;;
81457;SDS011;70882;52.500;5.500;2023-09-19T10:25:00;6.25;;;1.40;;
81457;SDS011;70882;52.500;5.500;2023-09-19T10:27:28;3.90;;;1.20;;
81457;SDS011;70882;52.500;5.500;2023-09-19T10:29:54;7.25;;;1.67;;
81457;SDS011;70882;52.500;5.500;2023-09-19T10:32:22;3.50;;;1.20;;
81457;SDS011;70882;52.500;5.500;2023-09-19T10:34:48;5.80;;;1.45;;
81457;SDS011;70882;52.500;5.500;2023-09-19T10:37:15;5.80;;;1.40;;
81457;SDS011;70882;52.500;5.500;2023-09-19T10:39:45;3.88;;;1.35;;
81457;SDS011;70882;52.500;5.500;2023-09-19T10:42:11;9.13;;;2.17;;
81457;SDS011;70882;52.500;5.500;2023-09-19T10:44:42;6.50;;;1.80;;
81457;SDS011;70882;52.500;5.500;2023-09-19T10:47:09;7.63;;;1.40;;
81457;SDS011;70882;52.500;5.500;2023-09-19T10:49:34;5.03;;;1.70;;
81457;SDS011;70882;52.500;5.500;2023-09-19T10:52:01;6.85;;;1.73;;
81457;SDS011;70882;52.500;5.500;2023-09-19T10:54:28;4.82;;;1.30;;
81457;SDS011;70882;52.500;5.500;2023-09-19T10:56:57;7.68;;;1.77;;
81457;SDS011;70882;52.500;5.500;2023-09-19T10:59:24;4.88;;;1.60;;
81457;SDS011;70882;52.500;5.500;2023-09-19T11:01:53;8.23;;;1.77;;
81457;SDS011;70882;52.500;5.500;2023-09-19T11:06:59;4.63;;;1.65;;
81457;SDS011;70882;52.500;5.500;2023-09-19T11:09:48;3.80;;;1.30;;
81457;SDS011;70882;52.500;5.500;2023-09-19T11:14:56;9.60;;;2.03;;
81457;SDS011;70882;52.500;5.500;2023-09-19T11:30:37;6.97;;;1.58;;
81457;SDS011;70882;52.500;5.500;2023-09-19T11:36:09;8.77;;;2.00;;
81457;SDS011;70882;52.500;5.500;2023-09-19T11:41:45;8.50;;;1.67;;
81457;SDS011;70882;52.500;5.500;2023-09-19T11:46:51;7.07;;;1.90;;
81457;SDS011;70882;52.500;5.500;2023-09-19T11:49:18;5.10;;;1.48;;
81457;SDS011;70882;52.500;5.500;2023-09-19T11:51:50;3.97;;;1.30;;
81457;SDS011;70882;52.500;5.500;2023-09-19T11:54:19;4.60;;;1.25;;
81457;SDS011;70882;52.500;5.500;2023-09-19T11:56:48;5.95;;;1.35;;
81457;SDS011;70882;52.500;5.500;2023-09-19T11:59:22;6.82;;;1.80;;
81457;SDS011;70882;52.500;5.500;2023-09-19T12:01:57;4.57;;;1.23;;
81457;SDS011;70882;52.500;5.500;2023-09-19T12:04:36;4.63;;;1.40;;
81457;SDS011;70882;52.500;5.500;2023-09-19T12:07:07;4.38;;;1.33;;
81457;SDS011;70882;52.500;5.500;2023-09-19T12:09:39;2.97;;;1.23;;
81457;SDS011;70882;52.500;5.500;2023-09-19T12:12:06;5.68;;;1.42;;
81457;SDS011;70882;52.500;5.500;2023-09-19T12:14:32;5.95;;;1.70;;
81457;SDS011;70882;52.500;5.500;2023-09-19T12:16:58;1.42;;;1.00;;
81457;SDS011;70882;52.500;5.500;2023-09-19T12:19:23;4.50;;;1.02;;
81457;SDS011;70882;52.500;5.500;2023-09-19T12:21:59;4.05;;;1.08;;
81457;SDS011;70882;52.500;5.500;2023-09-19T12:24:29;5.22;;;1.20;;
81457;SDS011;70882;52.500;5.500;2023-09-19T12:26:59;4.88;;;1.20;;
81457;SDS011;70882;52.500;5.500;2023-09-19T12:29:41;5.13;;;1.02;;
81457;SDS011;70882;52.500;5.500;2023-09-19T12:32:10;2.72;;;1.20;;
81457;SDS011;70882;52.500;5.500;2023-09-19T12:34:36;4.07;;;1.17;;
81457;SDS011;70882;52.500;5.500;2023-09-19T12:37:08;2.58;;;0.93;;
81457;SDS011;70882;52.500;5.500;2023-09-19T12:39:38;2.67;;;1.20;;
81457;SDS011;70882;52.500;5.500;2023-09-19T12:42:06;3.28;;;1.17;;
81457;SDS011;70882;52.500;5.500;2023-09-19T12:44:35;4.10;;;1.40;;
81457;SDS011;70882;52.500;5.500;2023-09-19T12:47:08;4.90;;;1.10;;
81457;SDS011;70882;52.500;5.500;2023-09-19T12:50:04;3.80;;;1.23;;
81457;SDS011;70882;52.500;5.500;2023-09-19T12:52:51;5.70;;;1.10;;
81457;SDS011;70882;52.500;5.500;2023-09-19T12:57:59;3.95;;;1.20;;
81457;SDS011;70882;52.500;5.500;2023-09-19T13:00:38;3.58;;;1.00;;
81457;SDS011;70882;52.500;5.500;2023-09-19T13:05:53;3.38;;;0.90;;
81457;SDS011;70882;52.500;5.500;2023-09-19T13:08:21;5.35;;;1.27;;
81457;SDS011;70882;52.500;5.500;2023-09-19T13:16:07;2.45;;;1.00;;
81457;SDS011;70882;52.500;5.500;2023-09-19T13:18:41;4.13;;;1.38;;
81457;SDS011;70882;52.500;5.500;2023-09-19T13:21:09;6.70;;;1.60;;
81457;SDS011;70882;52.500;5.500;2023-09-19T13:23:41;2.75;;;1.17;;
81457;SDS011;70882;52.500;5.500;2023-09-19T13:26:08;4.45;;;0.93;;
81457;SDS011;70882;52.500;5.500;2023-09-19T13:28:34;5.68;;;1.10;;
81457;SDS011;70882;52.500;5.500;2023-09-19T13:31:00;3.72;;;1.15;;
81457;SDS011;70882;52.500;5.500;2023-09-19T13:33:26;5.72;;;1.20;;
81457;SDS011;70882;52.500;5.500;2023-09-19T13:35:51;4.15;;;0.93;;
81457;SDS011;70882;52.500;5.500;2023-09-19T13:38:18;1.80;;;0.90;;
81457;SDS011;70882;52.500;5.500;2023-09-19T13:40:47;5.30;;;1.23;;
81457;SDS011;70882;52.500;5.500;2023-09-19T13:43:13;2.25;;;0.95;;
81457;SDS011;70882;52.500;5.500;2023-09-19T13:45:38;3.33;;;1.15;;
81457;SDS011;70882;52.500;5.500;2023-09-19T13:48:07;3.83;;;1.10;;
81457;SDS011;70882;52.500;5.500;2023-09-19T13:50:33;4.80;;;1.08;;
81457;SDS011;70882;52.500;5.500;2023-09-19T13:53:01;3.70;;;1.00;;
81457;SDS011;70882;52.500;5.500;2023-09-19T13:55:27;2.88;;;1.10;;
81457;SDS011;70882;52.500;5.500;2023-09-19T13:57:53;6.00;;;1.10;;
81457;SDS011;70882;52.500;5.500;2023-09-19T14:00:20;2.63;;;0.80;;
81457;SDS011;70882;52.500;5.500;2023-09-19T14:02:47;2.28;;;1.10;;
81457;SDS011;70882;52.500;5.500;2023-09-19T14:05:14;3.92;;;1.10;;
81457;SDS011;70882;52.500;5.500;2023-09-19T14:07:42;4.28;;;0.90;;
81457;SDS011;70882;52.500;5.500;2023-09-19T14:10:07;4.20;;;0.90;;
81457;SDS011;70882;52.500;5.500;2023-09-19T14:12:33;2.08;;;0.80;;
81457;SDS011;70882;52.500;5.500;2023-09-19T14:14:59;6.05;;;1.25;;
81457;SDS011;70882;52.500;5.500;2023-09-19T14:17:25;3.33;;;0.80;;
81457;SDS011;70882;52.500;5.500;2023-09-19T14:19:51;1.95;;;0.90;;
81457;SDS011;70882;52.500;5.500;2023-09-19T14:22:17;2.53;;;1.20;;
81457;SDS011;70882;52.500;5.500;2023-09-19T14:24:42;3.53;;;1.10;;
81457;SDS011;70882;52.500;5.500;2023-09-19T14:27:09;2.05;;;0.75;;
81457;SDS011;70882;52.500;5.500;2023-09-19T14:29:36;3.17;;;0.82;;
81457;SDS011;70882;52.500;5.500;2023-09-19T14:32:01;4.45;;;1.10;;
81457;SDS011;70882;52.500;5.500;2023-09-19T14:34:27;2.40;;;0.82;;
81457;SDS011;70882;52.500;5.500;2023-09-19T14:36:52;5.45;;;1.23;;
81457;SDS011;70882;52.500;5.500;2023-09-19T14:39:19;3.53;;;0.93;;
81457;SDS011;70882;52.500;5.500;2023-09-19T14:41:44;3.10;;;0.98;;
81457;SDS011;70882;52.500;5.500;2023-09-19T14:44:10;2.55;;;0.98;;
81457;SDS011;70882;52.500;5.500;2023-09-19T14:46:36;1.92;;;0.90;;
81457;SDS011;70882;52.500;5.500;2023-09-19T14:49:01;2.22;;;0.90;;
81457;SDS011;70882;52.500;5.500;2023-09-19T14:51:29;1.92;;;0.85;;
81457;SDS011;70882;52.500;5.500;2023-09-19T14:53:55;1.92;;;0.82;;
81457;SDS011;70882;52.500;5.500;2023-09-19T14:56:21;3.45;;;0.90;;
81457;SDS011;70882;52.500;5.500;2023-09-19T14:58:48;1.83;;;0.70;;
81457;SDS011;70882;52.500;5.500;2023-09-19T15:01:14;2.40;;;0.90;;
81457;SDS011;70882;52.500;5.500;2023-09-19T15:03:40;2.00;;;1.02;;
81457;SDS011;70882;52.500;5.500;2023-09-19T15:06:07;4.22;;;1.00;;
81457;SDS011;70882;52.500;5.500;2023-09-19T15:08:36;3.17;;;1.48;;
81457;SDS011;70882;52.500;5.500;2023-09-19T15:11:05;4.25;;;0.90;;
81457;SDS011;70882;52.500;5.500;2023-09-19T15:13:32;2.65;;;0.90;;
81457;SDS011;70882;52.500;5.500;2023-09-19T15:16:01;4.28;;;1.10;;
81457;SDS011;70882;52.500;5.500;2023-09-19T15:18:33;2.33;;;0.93;;
81457;SDS011;70882;52.500;5.500;2023-09-19T15:21:03;3.25;;;1.00;;
81457;SDS011;70882;52.500;5.500;2023-09-19T15:23:32;2.53;;;1.00;;
81457;SDS011;70882;52.500;5.500;2023-09-19T15:25:59;4.93;;;1.00;;
81457;SDS011;70882;52.500;5.500;2023-09-19T15:28:26;4.05;;;1.05;;
81457;SDS011;70882;52.500;5.500;2023-09-19T15:30:57;3.15;;;1.15;;
81457;SDS011;70882;52.500;5.500;2023-09-19T15:33:25;1.88;;;1.08;;
81457;SDS011;70882;52.500;5.500;2023-09-19T15:35:59;2.72;;;1.00;;
81457;SDS011;70882;52.500;5.500;2023-09-19T15:38:26;3.50;;;1.00;;
81457;SDS011;70882;52.500;5.500;2023-09-19T15:40:53;4.30;;;1.40;;
81457;SDS011;70882;52.500;5.500;2023-09-19T15:43:19;2.90;;;0.80;;
81457;SDS011;70882;52.500;5.500;2023-09-19T15:45:46;6.03;;;1.40;;
81457;SDS011;70882;52.500;5.500;2023-09-19T15:48:13;1.85;;;1.05;;
81457;SDS011;70882;52.500;5.500;2023-09-19T15:50:38;3.65;;;1.40;;
81457;SDS011;70882;52.500;5.500;2023-09-19T15:53:07;2.83;;;0.90;;